createdAt,value
2022-11-17T00:01:07.614Z,100.00
2022-11-17T00:04:10.485Z,100.00
2022-11-17T00:07:14.484Z,100.00
2022-11-17T00:10:18.039Z,100.00
2022-11-17T00:13:39.858Z,100.00
2022-11-17T00:16:43.159Z,100.00
2022-11-17T00:20:04.822Z,100.00
2022-11-17T00:23:07.797Z,100.00
2022-11-17T00:26:11.001Z,100.00
2022-11-17T00:29:14.487Z,100.00
2022-11-17T00:32:37.444Z,100.00
2022-11-17T00:35:41.803Z,100.00
2022-11-17T00:38:44.589Z,100.00
2022-11-17T00:41:48.540Z,100.00
2022-11-17T00:44:51.491Z,100.00
2022-11-17T00:47:54.626Z,100.00
2022-11-17T00:50:57.039Z,100.00
2022-11-17T00:54:00.003Z,100.00
2022-11-17T00:57:04.180Z,100.00
2022-11-17T01:00:08.243Z,100.00
2022-11-17T01:03:12.024Z,100.00
2022-11-17T01:06:17.789Z,100.00
2022-11-17T01:09:23.421Z,100.00
2022-11-17T01:12:26.162Z,100.00
2022-11-17T01:15:28.845Z,100.00
2022-11-17T01:18:32.271Z,100.00
2022-11-17T01:21:35.656Z,100.00
2022-11-17T01:24:38.965Z,100.00
2022-11-17T01:27:41.922Z,100.00
2022-11-17T01:30:46.695Z,100.00
2022-11-17T01:33:51.348Z,100.00
2022-11-17T01:37:14.785Z,100.00
2022-11-17T01:40:17.545Z,100.00
2022-11-17T01:43:45.039Z,100.00
2022-11-17T01:46:49.163Z,100.00
2022-11-17T01:49:56.376Z,100.00
2022-11-17T01:53:02.754Z,100.00
2022-11-17T01:56:11.805Z,100.00
2022-11-17T01:59:23.257Z,100.00
2022-11-17T02:02:31.599Z,100.00
2022-11-17T02:54:47.121Z,99.96
2022-11-17T02:57:51.387Z,99.99
2022-11-17T03:01:22.187Z,100.00
2022-11-17T03:04:36.539Z,100.00
2022-11-17T03:07:50.802Z,100.00
2022-11-17T03:11:08.801Z,100.00
2022-11-17T03:14:25.696Z,100.00
2022-11-17T03:17:49.095Z,100.00
2022-11-17T03:20:59.655Z,100.00
2022-11-17T03:24:18.881Z,100.00
2022-11-17T03:27:25.541Z,100.00
2022-11-17T03:30:34.617Z,100.00
2022-11-17T03:33:44.940Z,100.00
2022-11-17T03:36:53.555Z,100.00
2022-11-17T03:40:03.353Z,100.00
2022-11-17T03:43:11.951Z,100.00
2022-11-17T03:46:17.896Z,100.00
2022-11-17T03:49:27.965Z,100.00
2022-11-17T03:52:33.165Z,100.00
2022-11-17T03:56:02.413Z,100.00
2022-11-17T03:59:10.972Z,100.00
2022-11-17T04:02:17.401Z,100.00
2022-11-17T04:05:20.838Z,100.00
2022-11-17T04:08:26.077Z,100.00
2022-11-17T04:11:47.847Z,100.00
2022-11-17T04:15:11.502Z,100.00
2022-11-17T04:18:19.777Z,100.00
2022-11-17T04:21:22.480Z,100.00
2022-11-17T04:24:25.671Z,100.00
2022-11-17T04:27:48.873Z,100.00
2022-11-17T04:30:52.136Z,100.00
2022-11-17T04:34:01.974Z,100.00
2022-11-17T04:37:17.266Z,100.00
2022-11-17T04:40:20.383Z,100.00
2022-11-17T04:43:23.224Z,100.00
2022-11-17T04:46:26.357Z,100.00
2022-11-17T04:49:32.315Z,100.00
2022-11-17T04:52:36.425Z,100.00
2022-11-17T04:55:42.755Z,100.00
2022-11-17T04:58:52.370Z,100.00
2022-11-17T05:02:01.064Z,100.00
2022-11-17T05:05:09.060Z,100.00
2022-11-17T05:08:12.380Z,100.00
2022-11-17T05:11:36.074Z,99.98
2022-11-17T05:14:40.822Z,99.90
2022-11-17T05:17:43.884Z,99.91
2022-11-17T05:20:46.955Z,99.96
2022-11-17T05:23:55.841Z,100.00
2022-11-17T05:26:58.911Z,100.00
2022-11-17T05:30:10.510Z,100.00
2022-11-17T05:33:14.648Z,100.00
2022-11-17T05:36:19.136Z,99.92
2022-11-17T05:39:26.150Z,99.93
2022-11-17T05:42:29.295Z,99.96
2022-11-17T05:45:32.834Z,100.00
2022-11-17T05:48:36.004Z,100.00
2022-11-17T05:51:39.505Z,100.00
2022-11-17T05:54:42.671Z,100.00
2022-11-17T05:57:47.101Z,100.00
2022-11-17T06:00:58.488Z,100.00
2022-11-17T06:04:04.923Z,100.00
2022-11-17T06:07:07.999Z,100.00
2022-11-17T06:10:17.948Z,100.00
2022-11-17T06:13:29.820Z,100.00
2022-11-17T06:16:37.345Z,100.00
2022-11-17T06:19:44.345Z,100.00
2022-11-17T06:22:55.752Z,100.00
2022-11-17T06:26:01.749Z,100.00
2022-11-17T06:29:05.858Z,100.00
2022-11-17T06:32:17.081Z,100.00
2022-11-17T06:35:22.861Z,100.00
2022-11-17T06:38:29.819Z,100.00
2022-11-17T06:41:36.898Z,99.04
2022-11-17T06:44:46.750Z,95.87
2022-11-17T06:47:54.359Z,91.36
2022-11-17T06:51:04.823Z,87.66
2022-11-17T06:54:13.257Z,85.30
2022-11-17T06:57:19.019Z,82.44
2022-11-17T07:00:24.008Z,80.25
2022-11-17T07:03:27.218Z,83.39
2022-11-17T07:06:34.150Z,86.06
2022-11-17T07:09:38.089Z,85.90
2022-11-17T07:12:42.056Z,87.61
2022-11-17T07:15:46.057Z,88.79
2022-11-17T07:18:50.172Z,88.95
2022-11-17T07:21:59.671Z,87.39
2022-11-17T07:25:04.855Z,88.35
2022-11-17T07:28:13.802Z,89.86
2022-11-17T07:31:22.338Z,91.18
2022-11-17T07:34:25.752Z,91.84
2022-11-17T07:37:33.662Z,91.65
2022-11-17T07:40:36.389Z,90.94
2022-11-17T07:43:39.997Z,90.45
2022-11-17T07:46:43.138Z,90.73
2022-11-17T07:49:46.371Z,91.24
2022-11-17T07:52:50.928Z,91.55
2022-11-17T07:55:57.251Z,91.33
2022-11-17T07:59:03.850Z,91.74
2022-11-17T08:02:10.560Z,91.93
2022-11-17T08:05:17.906Z,91.92
2022-11-17T08:08:22.479Z,91.83
2022-11-17T08:11:29.198Z,92.10
2022-11-17T08:14:31.999Z,91.22
2022-11-17T08:17:37.510Z,90.18
2022-11-17T08:20:41.054Z,90.00
2022-11-17T08:23:44.346Z,88.61
2022-11-17T08:26:50.280Z,87.10
2022-11-17T08:29:53.486Z,86.36
2022-11-17T08:33:00.634Z,86.08
2022-11-17T08:36:07.185Z,86.56
2022-11-17T08:39:10.526Z,85.31
2022-11-17T08:42:13.810Z,84.37
2022-11-17T08:45:18.372Z,84.72
2022-11-17T08:48:23.844Z,85.55
2022-11-17T08:51:29.660Z,85.94
2022-11-17T08:54:34.042Z,85.97
2022-11-17T08:57:38.765Z,86.02
2022-11-17T09:00:42.399Z,86.21
2022-11-17T09:03:47.370Z,85.46
2022-11-17T09:06:51.483Z,84.95
2022-11-17T09:09:55.185Z,85.43
2022-11-17T09:12:58.874Z,85.38
2022-11-17T09:16:07.163Z,85.27
2022-11-17T09:19:11.088Z,84.68
2022-11-17T09:22:13.986Z,84.30
2022-11-17T09:25:16.991Z,83.18
2022-11-17T09:28:27.153Z,82.64
2022-11-17T09:31:30.329Z,82.64
2022-11-17T09:34:33.479Z,81.29
2022-11-17T09:37:38.450Z,79.27
2022-11-17T09:40:43.979Z,73.84
2022-11-17T09:43:53.705Z,69.37
2022-11-17T09:47:04.781Z,66.54
2022-11-17T09:50:31.650Z,64.70
2022-11-17T09:54:00.664Z,61.78
2022-11-17T09:57:07.702Z,62.38
2022-11-17T10:00:16.205Z,60.64
2022-11-17T10:03:28.875Z,61.47
2022-11-17T10:06:32.550Z,61.05
2022-11-17T10:09:45.774Z,56.81
2022-11-17T10:12:58.842Z,59.50
2022-11-17T10:16:06.882Z,59.01
2022-11-17T10:19:20.748Z,57.53
2022-11-17T10:22:35.793Z,57.22
2022-11-17T10:25:43.039Z,58.49
2022-11-17T10:29:09.409Z,59.15
2022-11-17T10:32:15.386Z,61.40
2022-11-17T10:35:26.916Z,64.48
2022-11-17T10:38:35.862Z,66.61
2022-11-17T10:41:42.381Z,69.52
2022-11-17T10:44:51.511Z,70.51
2022-11-17T10:48:24.782Z,71.38
2022-11-17T10:51:33.125Z,72.05
2022-11-17T10:54:37.123Z,73.07
2022-11-17T10:57:45.787Z,73.35
2022-11-17T11:01:01.860Z,73.98
2022-11-17T11:04:08.050Z,74.66
2022-11-17T11:07:17.890Z,74.59
2022-11-17T11:10:41.447Z,74.42
2022-11-17T11:13:53.409Z,74.93
2022-11-17T11:16:56.605Z,75.06
2022-11-17T11:20:00.108Z,75.30
2022-11-17T11:23:14.879Z,76.22
2022-11-17T11:26:47.969Z,75.55
2022-11-17T11:30:05.526Z,77.20
2022-11-17T11:33:23.876Z,77.22
2022-11-17T11:36:55.118Z,77.92
2022-11-17T11:40:23.060Z,77.52
2022-11-17T11:43:39.948Z,77.92
2022-11-17T11:46:52.308Z,77.48
2022-11-17T11:50:04.384Z,77.35
2022-11-17T11:53:31.844Z,77.39
2022-11-17T11:56:42.162Z,76.97
2022-11-17T12:00:00.879Z,77.24
2022-11-17T12:03:34.040Z,77.01
2022-11-17T12:06:54.910Z,76.44
2022-11-17T12:10:16.186Z,75.81
2022-11-17T12:13:24.293Z,74.93
2022-11-17T12:16:35.162Z,75.03
2022-11-17T12:20:09.269Z,75.12
2022-11-17T12:23:20.375Z,74.15
2022-11-17T12:26:34.134Z,74.19
2022-11-17T12:29:48.252Z,73.42
2022-11-17T12:32:56.790Z,74.69
2022-11-17T12:36:30.463Z,74.62
2022-11-17T12:39:54.965Z,75.35
2022-11-17T12:43:38.816Z,75.12
2022-11-17T12:46:48.114Z,75.72
2022-11-17T12:50:06.956Z,75.48
2022-11-17T12:53:12.210Z,74.73
2022-11-17T12:56:34.033Z,75.61
2022-11-17T13:00:00.013Z,74.67
2022-11-17T13:03:14.892Z,74.70
2022-11-17T13:06:35.296Z,74.96
2022-11-17T13:09:39.195Z,74.57
2022-11-17T13:12:42.982Z,74.83
2022-11-17T13:16:00.793Z,75.18
2022-11-17T13:19:34.377Z,75.80
2022-11-17T13:22:41.941Z,75.44
2022-11-17T13:25:49.067Z,76.03
2022-11-17T13:29:10.836Z,75.38
2022-11-17T13:32:21.351Z,75.53
2022-11-17T13:35:39.769Z,76.39
2022-11-17T13:38:53.256Z,76.80
2022-11-17T13:41:58.956Z,77.02
2022-11-17T13:45:06.322Z,77.10
2022-11-17T13:48:33.160Z,77.19
2022-11-17T13:51:46.304Z,78.04
2022-11-17T13:54:57.711Z,78.20
2022-11-17T13:58:05.568Z,78.62
2022-11-17T14:01:13.931Z,78.81
2022-11-17T14:04:24.720Z,78.78
2022-11-17T14:07:31.905Z,78.86
2022-11-17T14:10:39.151Z,78.99
2022-11-17T14:14:01.404Z,79.51
2022-11-17T14:17:22.913Z,79.39
2022-11-17T14:20:27.846Z,80.25
2022-11-17T14:23:37.161Z,81.10
2022-11-17T14:26:44.928Z,81.63
2022-11-17T14:29:54.060Z,82.06
2022-11-17T14:33:09.040Z,82.40
2022-11-17T14:36:19.870Z,83.55
2022-11-17T14:39:24.521Z,83.78
2022-11-17T14:42:32.869Z,84.16
2022-11-17T14:45:39.492Z,84.69
2022-11-17T14:48:43.379Z,84.89
2022-11-17T14:52:00.140Z,84.94
2022-11-17T14:55:05.892Z,85.70
2022-11-17T14:58:10.282Z,85.44
2022-11-17T15:01:20.545Z,85.74
2022-11-17T15:08:08.849Z,86.04
2022-11-17T15:11:17.892Z,86.37
2022-11-17T15:14:23.211Z,86.59
2022-11-17T15:17:30.366Z,86.54
2022-11-17T15:20:36.826Z,86.83
2022-11-17T15:23:47.185Z,87.39
2022-11-17T15:26:52.857Z,87.47
2022-11-17T15:29:59.093Z,87.83
2022-11-17T15:33:19.765Z,87.79
2022-11-17T15:36:32.862Z,88.25
2022-11-17T15:39:39.842Z,88.09
2022-11-17T15:42:44.087Z,88.24
2022-11-17T15:46:21.558Z,88.29
2022-11-17T15:49:34.430Z,89.05
2022-11-17T15:53:02.940Z,88.74
2022-11-17T15:56:14.361Z,88.78
2022-11-17T15:59:21.183Z,89.10
2022-11-17T16:02:25.834Z,89.25
2022-11-17T16:05:30.864Z,89.63
2022-11-17T16:08:37.069Z,89.75
2022-11-17T16:11:47.798Z,90.16
2022-11-17T16:14:58.581Z,90.57
2022-11-17T16:18:04.056Z,90.77
2022-11-17T16:21:12.847Z,91.01
2022-11-17T16:24:32.845Z,91.25
2022-11-17T16:27:42.855Z,91.11
2022-11-17T16:30:49.482Z,91.53
2022-11-17T16:34:09.004Z,91.43
2022-11-17T16:37:22.798Z,91.30
2022-11-17T16:40:35.918Z,91.50
2022-11-17T16:43:51.999Z,91.58
2022-11-17T16:47:00.391Z,91.50
2022-11-17T16:50:09.842Z,91.86
2022-11-17T16:53:16.875Z,91.30
2022-11-17T16:56:37.077Z,91.61
2022-11-17T16:59:42.497Z,91.68
2022-11-17T17:02:57.969Z,91.87
2022-11-17T17:06:19.270Z,91.83
2022-11-17T17:09:32.804Z,91.79
2022-11-17T17:12:37.845Z,91.91
2022-11-17T17:15:40.801Z,92.08
2022-11-17T17:18:50.742Z,91.99
2022-11-17T17:22:01.824Z,92.04
2022-11-17T17:25:22.840Z,91.97
2022-11-17T17:28:33.544Z,92.04
2022-11-17T17:31:39.794Z,92.22
2022-11-17T17:34:45.294Z,92.23
2022-11-17T17:37:48.710Z,92.23
2022-11-17T17:40:52.827Z,92.23
2022-11-17T17:44:02.983Z,92.26
2022-11-17T17:47:07.018Z,92.27
2022-11-17T17:50:10.355Z,92.49
2022-11-17T17:53:14.905Z,92.40
2022-11-17T17:56:22.027Z,92.47
2022-11-17T17:59:30.042Z,92.47
2022-11-17T18:02:38.030Z,92.39
2022-11-17T18:05:46.522Z,92.66
2022-11-17T18:09:04.063Z,92.75
2022-11-17T18:12:09.098Z,92.81
2022-11-17T18:15:19.287Z,92.78
2022-11-17T18:18:26.030Z,92.52
2022-11-17T18:21:31.863Z,92.55
2022-11-17T18:24:40.733Z,92.55
2022-11-17T18:27:45.637Z,92.56
2022-11-17T18:30:51.174Z,92.72
2022-11-17T18:34:01.824Z,92.69
2022-11-17T18:37:19.237Z,92.93
2022-11-17T18:40:22.444Z,92.89
2022-11-17T18:43:34.819Z,92.94
2022-11-17T18:46:41.420Z,93.18
2022-11-17T18:49:53.401Z,93.40
2022-11-17T18:53:06.067Z,93.40
2022-11-17T18:56:13.152Z,93.35
2022-11-17T18:59:19.966Z,93.58
2022-11-17T19:02:24.373Z,93.65
2022-11-17T19:05:36.874Z,93.71
2022-11-17T19:08:41.150Z,93.85
2022-11-17T19:11:46.521Z,93.97
2022-11-17T19:15:10.747Z,94.05
2022-11-17T19:18:15.973Z,94.14
2022-11-17T19:21:38.825Z,94.15
2022-11-17T19:24:48.844Z,94.30
2022-11-17T19:28:01.808Z,94.35
2022-11-17T19:31:24.733Z,94.55
2022-11-17T19:34:35.817Z,94.72
2022-11-17T19:37:41.845Z,94.69
2022-11-17T19:40:46.213Z,94.84
2022-11-17T19:44:00.061Z,95.00
2022-11-17T19:47:13.829Z,94.85
2022-11-17T19:50:17.513Z,95.10
2022-11-17T19:53:43.871Z,94.99
2022-11-17T19:56:49.809Z,95.17
2022-11-17T19:59:54.654Z,95.00
2022-11-17T20:03:01.769Z,94.87
2022-11-17T20:06:11.027Z,94.90
2022-11-17T20:09:23.317Z,95.06
2022-11-17T20:12:42.744Z,95.22
2022-11-17T20:15:57.094Z,95.26
2022-11-17T20:19:03.996Z,95.23
2022-11-17T20:22:17.854Z,95.38
2022-11-17T20:25:26.807Z,95.43
2022-11-17T20:28:35.910Z,95.56
2022-11-17T20:31:41.095Z,95.71
2022-11-17T20:34:44.997Z,95.73
2022-11-17T20:37:49.173Z,95.64
2022-11-17T20:41:02.048Z,95.67
2022-11-17T20:44:24.868Z,95.74
2022-11-17T20:47:33.002Z,95.77
2022-11-17T20:50:42.845Z,95.81
2022-11-17T20:53:47.816Z,96.00
2022-11-17T20:56:52.209Z,95.84
2022-11-17T21:00:04.108Z,95.92
2022-11-17T21:03:08.999Z,95.99
2022-11-17T21:06:14.828Z,95.91
2022-11-17T21:09:26.054Z,95.97
2022-11-17T21:12:33.800Z,95.95
2022-11-17T21:15:45.187Z,95.90
2022-11-17T21:18:49.801Z,95.98
2022-11-17T21:21:55.095Z,95.90
2022-11-17T21:24:58.782Z,96.05
2022-11-17T21:28:08.146Z,96.08
2022-11-17T21:31:15.799Z,95.82
2022-11-17T21:34:22.792Z,96.09
2022-11-17T21:37:28.061Z,95.95
2022-11-17T21:40:31.770Z,95.93
2022-11-17T21:43:42.896Z,95.84
2022-11-17T21:46:47.733Z,95.86
2022-11-17T21:49:57.696Z,95.91
2022-11-17T21:53:11.097Z,96.01
2022-11-17T21:56:14.420Z,96.47
2022-11-17T21:59:17.931Z,96.84
2022-11-17T22:02:28.719Z,97.38
2022-11-17T22:05:37.793Z,97.49
2022-11-17T22:08:43.542Z,97.32
2022-11-17T22:11:51.821Z,97.29
2022-11-17T22:14:55.813Z,97.40
2022-11-17T22:17:59.418Z,97.43
2022-11-17T22:21:06.904Z,97.55
2022-11-17T22:24:12.847Z,97.57
2022-11-17T22:27:15.825Z,97.91
2022-11-17T22:30:22.118Z,98.22
2022-11-17T22:33:24.999Z,98.38
2022-11-17T22:36:28.863Z,98.62
2022-11-17T22:39:31.668Z,98.86
2022-11-17T22:42:34.781Z,98.78
2022-11-17T22:45:40.233Z,98.87
2022-11-17T22:48:46.161Z,98.80
2022-11-17T22:52:04.137Z,98.55
2022-11-17T22:55:08.803Z,98.55
2022-11-17T22:58:15.960Z,98.85
2022-11-17T23:01:19.879Z,98.87
2022-11-17T23:04:23.537Z,99.18
2022-11-17T23:07:26.657Z,99.02
2022-11-17T23:10:30.202Z,98.89
2022-11-17T23:13:33.803Z,98.97
2022-11-17T23:16:37.768Z,99.02
2022-11-17T23:19:41.436Z,98.80
2022-11-17T23:22:45.012Z,98.93
2022-11-17T23:25:47.936Z,98.77
2022-11-17T23:28:51.286Z,98.73
2022-11-17T23:31:54.237Z,98.77
2022-11-17T23:34:57.409Z,98.56
2022-11-17T23:38:00.445Z,98.51
2022-11-17T23:41:07.589Z,98.40
2022-11-17T23:44:11.101Z,98.25
2022-11-17T23:47:13.878Z,98.53
2022-11-17T23:50:17.147Z,98.84
2022-11-17T23:53:20.277Z,98.74
2022-11-17T23:56:23.559Z,99.03
2022-11-17T23:59:26.414Z,99.15
